sensor_id;sensor_type;location;lat;lon;timestamp;pressure;altitude;pressure_sealevel;temperature;humidity
15529;BME280;7866;52.280;9.500;2023-02-16T00:04:57;101087.31;;;6.06;72.66
15529;BME280;7866;52.280;9.500;2023-02-16T00:10:00;101093.75;;;6.04;72.63
15529;BME280;7866;52.280;9.500;2023-02-16T00:15:13;101096.25;;;5.94;72.27
15529;BME280;7866;52.280;9.500;2023-02-16T00:20:16;101083.94;;;5.93;72.82
15529;BME280;7866;52.280;9.500;2023-02-16T00:25:19;101073.03;;;5.85;72.56
15529;BME280;7866;52.280;9.500;2023-02-16T00:30:21;101067.47;;;5.77;73.05
15529;BME280;7866;52.280;9.500;2023-02-16T00:35:23;101066.50;;;5.78;73.81
15529;BME280;7866;52.280;9.500;2023-02-16T00:40:26;101068.94;;;5.81;74.01
15529;BME280;7866;52.280;9.500;2023-02-16T00:45:28;101061.09;;;5.90;73.98
15529;BME280;7866;52.280;9.500;2023-02-16T00:50:31;101066.50;;;5.89;74.42
15529;BME280;7866;52.280;9.500;2023-02-16T00:55:35;101072.69;;;5.89;73.52
15529;BME280;7866;52.280;9.500;2023-02-16T01:00:39;101070.84;;;5.90;73.82
15529;BME280;7866;52.280;9.500;2023-02-16T01:05:42;101067.72;;;5.85;74.69
15529;BME280;7866;52.280;9.500;2023-02-16T01:10:45;101058.16;;;5.82;74.27
15529;BME280;7866;52.280;9.500;2023-02-16T01:16:12;101053.72;;;5.94;74.40
15529;BME280;7866;52.280;9.500;2023-02-16T01:21:14;101055.69;;;5.92;74.33
15529;BME280;7866;52.280;9.500;2023-02-16T01:26:19;101056.13;;;5.86;74.65
15529;BME280;7866;52.280;9.500;2023-02-16T01:31:20;101053.03;;;5.92;74.16
15529;BME280;7866;52.280;9.500;2023-02-16T01:36:26;101052.66;;;5.97;75.08
15529;BME280;7866;52.280;9.500;2023-02-16T01:41:43;101054.19;;;5.88;75.21
15529;BME280;7866;52.280;9.500;2023-02-16T01:46:49;101045.84;;;5.81;75.91
15529;BME280;7866;52.280;9.500;2023-02-16T01:51:55;101039.22;;;5.87;75.13
15529;BME280;7866;52.280;9.500;2023-02-16T01:57:04;101041.50;;;5.91;75.82
15529;BME280;7866;52.280;9.500;2023-02-16T02:02:11;101019.78;;;5.98;75.77
15529;BME280;7866;52.280;9.500;2023-02-16T02:07:20;101028.34;;;6.01;75.41
15529;BME280;7866;52.280;9.500;2023-02-16T02:12:28;101014.81;;;6.04;74.99
15529;BME280;7866;52.280;9.500;2023-02-16T02:17:32;101010.09;;;6.08;74.73
15529;BME280;7866;52.280;9.500;2023-02-16T02:28:36;101009.03;;;5.99;75.64
15529;BME280;7866;52.280;9.500;2023-02-16T02:33:46;101009.00;;;5.88;75.49
15529;BME280;7866;52.280;9.500;2023-02-16T02:39:00;101001.16;;;5.98;75.58
15529;BME280;7866;52.280;9.500;2023-02-16T02:44:07;101016.75;;;5.91;75.33
15529;BME280;7866;52.280;9.500;2023-02-16T02:49:09;100996.44;;;5.90;76.14
15529;BME280;7866;52.280;9.500;2023-02-16T02:54:15;101004.53;;;5.88;75.66
15529;BME280;7866;52.280;9.500;2023-02-16T02:59:36;101021.94;;;5.70;76.20
15529;BME280;7866;52.280;9.500;2023-02-16T03:04:58;101020.38;;;5.56;76.38
15529;BME280;7866;52.280;9.500;2023-02-16T03:10:00;101024.94;;;5.54;76.88
15529;BME280;7866;52.280;9.500;2023-02-16T03:15:23;101017.84;;;5.55;77.40
15529;BME280;7866;52.280;9.500;2023-02-16T03:20:26;101016.28;;;5.63;77.57
15529;BME280;7866;52.280;9.500;2023-02-16T03:25:45;101001.88;;;5.66;76.39
15529;BME280;7866;52.280;9.500;2023-02-16T03:31:07;101003.94;;;5.62;77.00
15529;BME280;7866;52.280;9.500;2023-02-16T03:36:10;101009.59;;;5.58;77.75
15529;BME280;7866;52.280;9.500;2023-02-16T03:41:12;101024.09;;;5.54;76.61
15529;BME280;7866;52.280;9.500;2023-02-16T03:46:15;101011.09;;;5.51;76.72
15529;BME280;7866;52.280;9.500;2023-02-16T03:51:16;101007.91;;;5.34;77.33
15529;BME280;7866;52.280;9.500;2023-02-16T03:56:18;101012.97;;;5.26;76.89
15529;BME280;7866;52.280;9.500;2023-02-16T04:01:21;101010.41;;;5.13;77.95
15529;BME280;7866;52.280;9.500;2023-02-16T04:06:23;100993.25;;;5.06;79.64
15529;BME280;7866;52.280;9.500;2023-02-16T04:11:25;100998.75;;;5.27;77.78
15529;BME280;7866;52.280;9.500;2023-02-16T04:16:45;100989.19;;;5.25;78.29
15529;BME280;7866;52.280;9.500;2023-02-16T04:21:47;100988.56;;;5.21;77.52
15529;BME280;7866;52.280;9.500;2023-02-16T04:26:49;100984.00;;;5.12;79.10
15529;BME280;7866;52.280;9.500;2023-02-16T04:31:51;100973.97;;;5.15;77.22
15529;BME280;7866;52.280;9.500;2023-02-16T04:36:53;100964.81;;;5.19;77.59
15529;BME280;7866;52.280;9.500;2023-02-16T04:41:55;100964.91;;;5.18;78.08
15529;BME280;7866;52.280;9.500;2023-02-16T04:46:58;100944.03;;;5.25;77.70
15529;BME280;7866;52.280;9.500;2023-02-16T04:51:59;100943.81;;;5.28;77.69
15529;BME280;7866;52.280;9.500;2023-02-16T04:57:03;100947.19;;;5.07;77.61
15529;BME280;7866;52.280;9.500;2023-02-16T05:02:06;100947.66;;;5.12;77.88
15529;BME280;7866;52.280;9.500;2023-02-16T05:07:07;100946.81;;;5.12;77.95
15529;BME280;7866;52.280;9.500;2023-02-16T05:12:10;100954.91;;;5.22;77.17
15529;BME280;7866;52.280;9.500;2023-02-16T05:17:30;100962.63;;;5.13;77.01
15529;BME280;7866;52.280;9.500;2023-02-16T05:22:32;100957.28;;;5.02;78.39
15529;BME280;7866;52.280;9.500;2023-02-16T05:27:34;100955.22;;;4.94;79.08
15529;BME280;7866;52.280;9.500;2023-02-16T05:32:37;100948.25;;;5.05;78.57
15529;BME280;7866;52.280;9.500;2023-02-16T05:37:39;100940.91;;;5.08;78.04
15529;BME280;7866;52.280;9.500;2023-02-16T05:42:40;100938.72;;;5.13;77.89
15529;BME280;7866;52.280;9.500;2023-02-16T05:47:43;100942.22;;;5.25;77.06
15529;BME280;7866;52.280;9.500;2023-02-16T05:52:45;100950.19;;;5.25;77.10
15529;BME280;7866;52.280;9.500;2023-02-16T05:57:47;100949.34;;;5.25;76.53
15529;BME280;7866;52.280;9.500;2023-02-16T06:02:50;100959.72;;;5.16;77.34
15529;BME280;7866;52.280;9.500;2023-02-16T06:07:52;100954.41;;;5.16;77.50
15529;BME280;7866;52.280;9.500;2023-02-16T06:12:53;100966.00;;;5.15;76.88
15529;BME280;7866;52.280;9.500;2023-02-16T06:17:56;100967.25;;;5.23;76.74
15529;BME280;7866;52.280;9.500;2023-02-16T06:22:58;100965.91;;;5.28;76.87
15529;BME280;7866;52.280;9.500;2023-02-16T06:27:59;100960.69;;;5.38;75.44
15529;BME280;7866;52.280;9.500;2023-02-16T06:33:03;100961.19;;;5.54;75.75
15529;BME280;7866;52.280;9.500;2023-02-16T06:38:04;100961.41;;;5.62;74.19
15529;BME280;7866;52.280;9.500;2023-02-16T06:43:06;100970.59;;;5.69;74.75
15529;BME280;7866;52.280;9.500;2023-02-16T06:48:09;100970.97;;;5.54;74.44
15529;BME280;7866;52.280;9.500;2023-02-16T06:53:10;100971.56;;;5.46;74.24
15529;BME280;7866;52.280;9.500;2023-02-16T06:58:12;100963.25;;;5.39;75.24
15529;BME280;7866;52.280;9.500;2023-02-16T07:03:15;100975.69;;;5.39;74.62
15529;BME280;7866;52.280;9.500;2023-02-16T07:08:17;100974.00;;;5.49;73.82
15529;BME280;7866;52.280;9.500;2023-02-16T07:13:18;100983.06;;;5.47;73.85
15529;BME280;7866;52.280;9.500;2023-02-16T07:18:21;100999.84;;;5.47;74.45
15529;BME280;7866;52.280;9.500;2023-02-16T07:23:23;100984.50;;;5.39;75.03
15529;BME280;7866;52.280;9.500;2023-02-16T07:28:25;100978.81;;;5.44;74.65
15529;BME280;7866;52.280;9.500;2023-02-16T07:33:28;100976.41;;;5.52;74.59
15529;BME280;7866;52.280;9.500;2023-02-16T07:38:30;100983.53;;;5.63;73.62
15529;BME280;7866;52.280;9.500;2023-02-16T07:43:32;100998.97;;;5.80;73.18
15529;BME280;7866;52.280;9.500;2023-02-16T07:48:35;101001.03;;;5.77;72.85
15529;BME280;7866;52.280;9.500;2023-02-16T07:53:37;101004.91;;;5.73;73.72
15529;BME280;7866;52.280;9.500;2023-02-16T07:58:39;100996.69;;;5.87;73.17
15529;BME280;7866;52.280;9.500;2023-02-16T08:03:42;100998.75;;;5.72;73.76
15529;BME280;7866;52.280;9.500;2023-02-16T08:08:44;101009.25;;;5.85;72.86
15529;BME280;7866;52.280;9.500;2023-02-16T08:13:46;101006.63;;;5.96;72.22
15529;BME280;7866;52.280;9.500;2023-02-16T08:18:49;101016.63;;;6.15;72.19
15529;BME280;7866;52.280;9.500;2023-02-16T08:23:54;101006.59;;;6.19;71.53
15529;BME280;7866;52.280;9.500;2023-02-16T08:28:57;100998.06;;;6.36;70.68
15529;BME280;7866;52.280;9.500;2023-02-16T08:34:00;101003.38;;;6.68;70.41
15529;BME280;7866;52.280;9.500;2023-02-16T08:39:04;101006.69;;;6.81;69.52
15529;BME280;7866;52.280;9.500;2023-02-16T08:44:06;100998.84;;;7.01;70.28
15529;BME280;7866;52.280;9.500;2023-02-16T08:49:10;100989.72;;;7.14;69.28
15529;BME280;7866;52.280;9.500;2023-02-16T08:54:15;100981.94;;;7.32;68.61
15529;BME280;7866;52.280;9.500;2023-02-16T08:59:18;100978.81;;;7.48;67.97
15529;BME280;7866;52.280;9.500;2023-02-16T09:04:22;101001.28;;;7.55;67.90
15529;BME280;7866;52.280;9.500;2023-02-16T09:09:25;100995.59;;;7.39;67.54
15529;BME280;7866;52.280;9.500;2023-02-16T09:14:27;100984.38;;;7.14;69.28
15529;BME280;7866;52.280;9.500;2023-02-16T09:19:30;100996.09;;;7.02;69.73
15529;BME280;7866;52.280;9.500;2023-02-16T09:24:32;101003.53;;;7.08;69.69
15529;BME280;7866;52.280;9.500;2023-02-16T09:29:34;101001.84;;;7.07;69.65
15529;BME280;7866;52.280;9.500;2023-02-16T09:34:39;100994.97;;;7.05;69.45
15529;BME280;7866;52.280;9.500;2023-02-16T09:39:41;100988.59;;;6.96;68.88
15529;BME280;7866;52.280;9.500;2023-02-16T09:44:51;100997.88;;;7.02;69.63
15529;BME280;7866;52.280;9.500;2023-02-16T09:49:56;100993.69;;;6.99;69.86
15529;BME280;7866;52.280;9.500;2023-02-16T09:54:59;100997.44;;;6.76;70.42
15529;BME280;7866;52.280;9.500;2023-02-16T10:00:06;100982.22;;;6.66;71.21
15529;BME280;7866;52.280;9.500;2023-02-16T10:05:17;101008.50;;;6.60;71.05
15529;BME280;7866;52.280;9.500;2023-02-16T10:10:22;100999.16;;;6.65;71.40
15529;BME280;7866;52.280;9.500;2023-02-16T10:15:27;100989.03;;;6.80;71.53
15529;BME280;7866;52.280;9.500;2023-02-16T10:20:34;100988.34;;;6.78;71.42
15529;BME280;7866;52.280;9.500;2023-02-16T10:25:40;100979.34;;;7.21;70.04
15529;BME280;7866;52.280;9.500;2023-02-16T10:30:48;100972.63;;;7.48;69.21
15529;BME280;7866;52.280;9.500;2023-02-16T10:35:57;100992.31;;;7.56;69.11
15529;BME280;7866;52.280;9.500;2023-02-16T10:41:06;100990.88;;;7.83;68.50
15529;BME280;7866;52.280;9.500;2023-02-16T10:46:18;101006.78;;;7.63;68.79
15529;BME280;7866;52.280;9.500;2023-02-16T10:51:25;101005.66;;;7.35;69.57
15529;BME280;7866;52.280;9.500;2023-02-16T10:56:46;101003.63;;;7.49;70.33
15529;BME280;7866;52.280;9.500;2023-02-16T11:01:53;100999.81;;;7.72;69.80
15529;BME280;7866;52.280;9.500;2023-02-16T11:07:02;100998.47;;;7.87;69.33
15529;BME280;7866;52.280;9.500;2023-02-16T11:12:22;101002.75;;;8.19;67.93
15529;BME280;7866;52.280;9.500;2023-02-16T11:17:25;100989.31;;;8.30;68.14
15529;BME280;7866;52.280;9.500;2023-02-16T11:22:31;100986.38;;;8.53;67.86
15529;BME280;7866;52.280;9.500;2023-02-16T11:27:32;100977.50;;;8.81;67.06
15529;BME280;7866;52.280;9.500;2023-02-16T11:32:34;100984.25;;;8.95;66.06
15529;BME280;7866;52.280;9.500;2023-02-16T11:37:39;100972.47;;;8.98;66.73
15529;BME280;7866;52.280;9.500;2023-02-16T11:42:44;100969.03;;;9.05;66.26
15529;BME280;7866;52.280;9.500;2023-02-16T11:47:51;100963.44;;;8.89;66.15
15529;BME280;7866;52.280;9.500;2023-02-16T11:52:56;100982.72;;;9.02;66.65
15529;BME280;7866;52.280;9.500;2023-02-16T11:58:13;100975.66;;;9.01;65.98
15529;BME280;7866;52.280;9.500;2023-02-16T12:03:25;100974.25;;;8.97;65.91
15529;BME280;7866;52.280;9.500;2023-02-16T12:08:44;100983.41;;;8.85;66.02
15529;BME280;7866;52.280;9.500;2023-02-16T12:13:57;100991.28;;;8.77;67.33
15529;BME280;7866;52.280;9.500;2023-02-16T12:19:14;100984.56;;;8.73;67.04
15529;BME280;7866;52.280;9.500;2023-02-16T12:24:32;100984.66;;;9.00;66.75
15529;BME280;7866;52.280;9.500;2023-02-16T12:29:42;100968.22;;;9.05;66.74
15529;BME280;7866;52.280;9.500;2023-02-16T12:34:56;100952.84;;;9.17;67.11
15529;BME280;7866;52.280;9.500;2023-02-16T12:40:13;100953.41;;;9.30;65.68
15529;BME280;7866;52.280;9.500;2023-02-16T12:45:18;100947.31;;;9.37;65.24
15529;BME280;7866;52.280;9.500;2023-02-16T12:50:22;100945.94;;;9.24;65.56
15529;BME280;7866;52.280;9.500;2023-02-16T12:55:30;100941.09;;;9.37;65.38
15529;BME280;7866;52.280;9.500;2023-02-16T13:00:40;100936.28;;;9.50;65.55
15529;BME280;7866;52.280;9.500;2023-02-16T13:05:45;100941.09;;;9.37;65.61
15529;BME280;7866;52.280;9.500;2023-02-16T13:10:55;100935.69;;;9.56;65.33
15529;BME280;7866;52.280;9.500;2023-02-16T13:16:06;100929.56;;;9.74;65.58
15529;BME280;7866;52.280;9.500;2023-02-16T13:21:16;100922.50;;;9.73;64.85
15529;BME280;7866;52.280;9.500;2023-02-16T13:32:15;100911.50;;;9.76;65.30
15529;BME280;7866;52.280;9.500;2023-02-16T13:37:25;100897.38;;;9.66;65.38
15529;BME280;7866;52.280;9.500;2023-02-16T13:42:49;100892.16;;;9.64;65.76
15529;BME280;7866;52.280;9.500;2023-02-16T13:47:56;100889.44;;;9.74;66.35
15529;BME280;7866;52.280;9.500;2023-02-16T13:53:15;100893.31;;;9.61;66.19
15529;BME280;7866;52.280;9.500;2023-02-16T13:58:30;100878.84;;;9.54;67.48
15529;BME280;7866;52.280;9.500;2023-02-16T14:03:36;100873.13;;;9.67;67.74
15529;BME280;7866;52.280;9.500;2023-02-16T14:08:38;100869.63;;;9.84;67.06
15529;BME280;7866;52.280;9.500;2023-02-16T14:13:48;100871.72;;;9.91;67.14
15529;BME280;7866;52.280;9.500;2023-02-16T14:18:56;100847.97;;;10.05;66.30
15529;BME280;7866;52.280;9.500;2023-02-16T14:24:00;100857.13;;;10.03;66.47
15529;BME280;7866;52.280;9.500;2023-02-16T14:29:09;100846.56;;;10.01;66.44
15529;BME280;7866;52.280;9.500;2023-02-16T14:34:20;100848.56;;;9.99;66.93
15529;BME280;7866;52.280;9.500;2023-02-16T14:39:25;100854.66;;;9.92;67.19
15529;BME280;7866;52.280;9.500;2023-02-16T14:44:39;100859.19;;;9.91;67.95
15529;BME280;7866;52.280;9.500;2023-02-16T14:50:00;100859.25;;;9.99;67.31
15529;BME280;7866;52.280;9.500;2023-02-16T14:55:46;100868.97;;;10.00;67.91
15529;BME280;7866;52.280;9.500;2023-02-16T15:01:01;100871.78;;;9.81;68.04
15529;BME280;7866;52.280;9.500;2023-02-16T15:06:05;100874.53;;;9.71;68.55
15529;BME280;7866;52.280;9.500;2023-02-16T15:11:14;100881.06;;;9.59;69.34
15529;BME280;7866;52.280;9.500;2023-02-16T15:16:16;100892.78;;;9.58;69.64
15529;BME280;7866;52.280;9.500;2023-02-16T15:21:22;100875.47;;;9.52;70.09
15529;BME280;7866;52.280;9.500;2023-02-16T15:26:29;100870.66;;;9.56;70.40
15529;BME280;7866;52.280;9.500;2023-02-16T15:31:34;100867.91;;;9.48;70.72
15529;BME280;7866;52.280;9.500;2023-02-16T15:36:40;100855.28;;;9.40;70.73
15529;BME280;7866;52.280;9.500;2023-02-16T15:41:44;100862.53;;;9.30;70.83
15529;BME280;7866;52.280;9.500;2023-02-16T15:46:48;100862.09;;;9.25;70.64
15529;BME280;7866;52.280;9.500;2023-02-16T15:51:53;100860.25;;;9.25;70.80
15529;BME280;7866;52.280;9.500;2023-02-16T15:56:57;100868.72;;;9.21;71.02
15529;BME280;7866;52.280;9.500;2023-02-16T16:02:03;100858.47;;;9.16;71.65
15529;BME280;7866;52.280;9.500;2023-02-16T16:07:14;100850.56;;;9.24;71.17
15529;BME280;7866;52.280;9.500;2023-02-16T16:12:18;100853.97;;;9.17;71.13
15529;BME280;7866;52.280;9.500;2023-02-16T16:17:24;100859.59;;;9.13;71.49
15529;BME280;7866;52.280;9.500;2023-02-16T16:22:32;100858.88;;;9.21;71.11
15529;BME280;7866;52.280;9.500;2023-02-16T16:27:35;100860.59;;;9.22;71.43
15529;BME280;7866;52.280;9.500;2023-02-16T16:32:37;100857.34;;;9.19;71.26
15529;BME280;7866;52.280;9.500;2023-02-16T16:37:40;100856.47;;;9.28;71.12
15529;BME280;7866;52.280;9.500;2023-02-16T16:43:06;100863.66;;;9.27;71.27
15529;BME280;7866;52.280;9.500;2023-02-16T16:48:09;100863.81;;;9.26;71.78
15529;BME280;7866;52.280;9.500;2023-02-16T16:53:40;100867.44;;;9.25;72.14
15529;BME280;7866;52.280;9.500;2023-02-16T16:58:47;100874.19;;;9.29;72.07
15529;BME280;7866;52.280;9.500;2023-02-16T17:03:49;100882.06;;;9.30;72.33
15529;BME280;7866;52.280;9.500;2023-02-16T17:08:52;100862.34;;;9.31;72.71
15529;BME280;7866;52.280;9.500;2023-02-16T17:13:55;100869.66;;;9.29;73.11
15529;BME280;7866;52.280;9.500;2023-02-16T17:18:57;100858.59;;;9.24;73.51
15529;BME280;7866;52.280;9.500;2023-02-16T17:24:00;100844.00;;;9.19;73.87
15529;BME280;7866;52.280;9.500;2023-02-16T17:29:02;100853.97;;;9.17;74.27
15529;BME280;7866;52.280;9.500;2023-02-16T17:34:04;100843.28;;;9.17;74.57
15529;BME280;7866;52.280;9.500;2023-02-16T17:39:07;100831.38;;;9.11;75.08
15529;BME280;7866;52.280;9.500;2023-02-16T17:44:09;100830.53;;;9.10;75.40
15529;BME280;7866;52.280;9.500;2023-02-16T17:49:12;100809.28;;;9.09;74.88
15529;BME280;7866;52.280;9.500;2023-02-16T17:54:15;100809.19;;;9.01;75.58
15529;BME280;7866;52.280;9.500;2023-02-16T17:59:16;100810.34;;;8.98;76.37
15529;BME280;7866;52.280;9.500;2023-02-16T18:04:18;100781.25;;;8.95;75.83
15529;BME280;7866;52.280;9.500;2023-02-16T18:09:21;100800.09;;;8.94;76.37
15529;BME280;7866;52.280;9.500;2023-02-16T18:14:23;100797.56;;;8.92;76.21
15529;BME280;7866;52.280;9.500;2023-02-16T18:19:26;100798.56;;;8.81;77.02
15529;BME280;7866;52.280;9.500;2023-02-16T18:24:29;100789.88;;;8.79;76.48
15529;BME280;7866;52.280;9.500;2023-02-16T18:29:31;100782.03;;;8.78;77.18
15529;BME280;7866;52.280;9.500;2023-02-16T18:34:32;100781.44;;;8.84;76.62
15529;BME280;7866;52.280;9.500;2023-02-16T18:39:35;100780.59;;;8.83;77.20
15529;BME280;7866;52.280;9.500;2023-02-16T18:44:37;100787.31;;;8.87;77.15
15529;BME280;7866;52.280;9.500;2023-02-16T18:49:38;100785.22;;;8.81;77.50
15529;BME280;7866;52.280;9.500;2023-02-16T18:54:42;100779.75;;;8.83;76.94
15529;BME280;7866;52.280;9.500;2023-02-16T18:59:46;100768.91;;;8.84;77.27
15529;BME280;7866;52.280;9.500;2023-02-16T19:04:48;100774.53;;;8.81;77.40
15529;BME280;7866;52.280;9.500;2023-02-16T19:09:51;100771.47;;;8.76;77.66
15529;BME280;7866;52.280;9.500;2023-02-16T19:14:52;100773.47;;;8.74;78.33
15529;BME280;7866;52.280;9.500;2023-02-16T19:19:54;100773.31;;;8.76;77.78
15529;BME280;7866;52.280;9.500;2023-02-16T19:24:57;100757.69;;;8.81;77.77
15529;BME280;7866;52.280;9.500;2023-02-16T19:29:59;100763.03;;;8.81;77.55
15529;BME280;7866;52.280;9.500;2023-02-16T19:35:01;100751.75;;;8.87;78.01
15529;BME280;7866;52.280;9.500;2023-02-16T19:40:05;100742.47;;;8.91;77.60
15529;BME280;7866;52.280;9.500;2023-02-16T19:45:08;100732.91;;;8.88;77.92
15529;BME280;7866;52.280;9.500;2023-02-16T19:50:10;100731.41;;;8.86;78.09
15529;BME280;7866;52.280;9.500;2023-02-16T19:55:13;100727.03;;;8.85;77.73
15529;BME280;7866;52.280;9.500;2023-02-16T20:00:14;100722.13;;;8.80;77.98
15529;BME280;7866;52.280;9.500;2023-02-16T20:05:16;100715.13;;;8.79;77.51
15529;BME280;7866;52.280;9.500;2023-02-16T20:10:19;100724.25;;;8.77;77.73
15529;BME280;7866;52.280;9.500;2023-02-16T20:15:21;100736.38;;;8.71;77.51
15529;BME280;7866;52.280;9.500;2023-02-16T20:20:23;100735.44;;;8.62;77.55
15529;BME280;7866;52.280;9.500;2023-02-16T20:25:26;100730.78;;;8.64;77.25
15529;BME280;7866;52.280;9.500;2023-02-16T20:30:28;100733.22;;;8.58;77.99
15529;BME280;7866;52.280;9.500;2023-02-16T20:35:33;100716.94;;;8.51;78.31
15529;BME280;7866;52.280;9.500;2023-02-16T20:40:36;100723.16;;;8.42;78.39
15529;BME280;7866;52.280;9.500;2023-02-16T20:45:37;100728.06;;;8.37;79.24
15529;BME280;7866;52.280;9.500;2023-02-16T20:50:42;100725.81;;;8.42;79.15
15529;BME280;7866;52.280;9.500;2023-02-16T20:55:45;100722.72;;;8.47;79.59
15529;BME280;7866;52.280;9.500;2023-02-16T21:00:46;100707.78;;;8.54;79.05
15529;BME280;7866;52.280;9.500;2023-02-16T21:05:48;100696.97;;;8.55;79.62
15529;BME280;7866;52.280;9.500;2023-02-16T21:10:51;100702.47;;;8.54;80.74
15529;BME280;7866;52.280;9.500;2023-02-16T21:15:52;100683.94;;;8.33;83.52
15529;BME280;7866;52.280;9.500;2023-02-16T21:20:54;100683.16;;;8.23;83.65
15529;BME280;7866;52.280;9.500;2023-02-16T21:25:59;100691.00;;;8.24;84.31
15529;BME280;7866;52.280;9.500;2023-02-16T21:31:01;100688.06;;;8.18;86.69
15529;BME280;7866;52.280;9.500;2023-02-16T21:36:05;100687.94;;;8.19;87.36
15529;BME280;7866;52.280;9.500;2023-02-16T21:41:12;100685.53;;;8.16;88.84
15529;BME280;7866;52.280;9.500;2023-02-16T21:46:28;100670.97;;;8.10;90.12
15529;BME280;7866;52.280;9.500;2023-02-16T21:51:33;100671.53;;;8.04;89.68
15529;BME280;7866;52.280;9.500;2023-02-16T21:56:38;100652.88;;;8.04;90.94
15529;BME280;7866;52.280;9.500;2023-02-16T22:01:42;100654.31;;;7.99;91.53
15529;BME280;7866;52.280;9.500;2023-02-16T22:06:46;100643.31;;;8.02;92.29
15529;BME280;7866;52.280;9.500;2023-02-16T22:11:49;100633.53;;;8.02;93.04
15529;BME280;7866;52.280;9.500;2023-02-16T22:16:51;100629.59;;;7.97;92.48
15529;BME280;7866;52.280;9.500;2023-02-16T22:21:53;100625.34;;;8.04;92.07
15529;BME280;7866;52.280;9.500;2023-02-16T22:26:56;100619.75;;;8.07;92.92
15529;BME280;7866;52.280;9.500;2023-02-16T22:31:57;100620.28;;;8.10;93.54
15529;BME280;7866;52.280;9.500;2023-02-16T22:36:59;100629.69;;;8.14;93.63
15529;BME280;7866;52.280;9.500;2023-02-16T22:42:02;100628.84;;;8.14;94.56
15529;BME280;7866;52.280;9.500;2023-02-16T22:47:04;100626.47;;;8.11;93.94
15529;BME280;7866;52.280;9.500;2023-02-16T22:52:06;100622.25;;;8.08;95.35
15529;BME280;7866;52.280;9.500;2023-02-16T22:57:09;100623.91;;;8.19;95.00
15529;BME280;7866;52.280;9.500;2023-02-16T23:02:10;100631.19;;;8.27;94.46
15529;BME280;7866;52.280;9.500;2023-02-16T23:07:12;100617.09;;;8.34;93.60
15529;BME280;7866;52.280;9.500;2023-02-16T23:12:15;100621.44;;;8.35;93.85
15529;BME280;7866;52.280;9.500;2023-02-16T23:17:18;100606.56;;;8.43;95.02
15529;BME280;7866;52.280;9.500;2023-02-16T23:22:20;100613.13;;;8.48;95.56
15529;BME280;7866;52.280;9.500;2023-02-16T23:27:23;100600.16;;;8.53;94.96
15529;BME280;7866;52.280;9.500;2023-02-16T23:32:25;100596.59;;;8.62;95.35
15529;BME280;7866;52.280;9.500;2023-02-16T23:37:30;100597.00;;;8.68;93.80
15529;BME280;7866;52.280;9.500;2023-02-16T23:42:33;100593.31;;;8.69;95.59
15529;BME280;7866;52.280;9.500;2023-02-16T23:47:34;100593.03;;;8.72;94.58
15529;BME280;7866;52.280;9.500;2023-02-16T23:52:36;100589.34;;;8.73;94.61
15529;BME280;7866;52.280;9.500;2023-02-16T23:57:40;100586.22;;;8.77;93.90
